Garanhuns Airport


Codes: SNGN/QGP
Name: Garanhuns Airport
City: Garanhuns
Country: Brazil
Elevation: 2533 ft.

Photos at Garanhuns Airport


   Photos courtesy of SpottingLog. You can add your own sightings and photos by signing up for a free trial today.



No photos found.

Weather at Garanhuns Airport


Time (UTC)DescriptionTempratureWindCloud coverageVisibilityPressureHumidity
13-Jun-2024 03:00Light Rain19°C9 mph, N98%0m1018hPa97%
13-Jun-2024 06:00Light Rain19°C9 mph, SE98%10000m1017hPa96%
13-Jun-2024 09:00Light Rain19°C7 mph, SE99%10000m1017hPa97%
13-Jun-2024 12:00Light Rain23°C11 mph, SE97%10000m1018hPa82%
13-Jun-2024 15:00Light Rain26°C13 mph, SE86%10000m1016hPa53%
13-Jun-2024 18:00Overcast Clouds25°C11 mph, SE90%10000m1014hPa59%
13-Jun-2024 21:00Light Rain19°C7 mph, SE100%10000m1017hPa100%
14-Jun-2024 00:00Light Rain20°C9 mph, N100%0m1019hPa97%
14-Jun-2024 03:00Light Rain19°C9 mph, N100%0m1018hPa98%
14-Jun-2024 06:00Light Rain19°C9 mph, SE100%10000m1017hPa97%
14-Jun-2024 09:00Light Rain19°C11 mph, SE98%10000m1018hPa97%
14-Jun-2024 12:00Light Rain21°C13 mph, SE95%10000m1020hPa81%
14-Jun-2024 15:00Light Rain23°C13 mph, SE85%10000m1018hPa74%
14-Jun-2024 18:00Light Rain22°C13 mph, SE92%10000m1016hPa81%
14-Jun-2024 21:00Light Rain19°C9 mph, SE84%1992m1018hPa99%
15-Jun-2024 00:00Light Rain19°C11 mph, SE92%10000m1019hPa98%
15-Jun-2024 03:00Light Rain19°C11 mph, N94%0m1018hPa98%
15-Jun-2024 06:00Light Rain18°C11 mph, SE95%10000m1017hPa96%
15-Jun-2024 09:00Overcast Clouds18°C9 mph, SE93%10000m1018hPa95%
15-Jun-2024 12:00Broken Clouds22°C13 mph, SE68%10000m1019hPa72%
15-Jun-2024 15:00Light Rain24°C16 mph, SE35%10000m1017hPa72%
15-Jun-2024 18:00Light Rain21°C11 mph, SE58%10000m1016hPa83%
15-Jun-2024 21:00Light Rain18°C9 mph, SE99%10000m1017hPa99%
16-Jun-2024 00:00Light Rain19°C11 mph, SE98%10000m1018hPa94%
16-Jun-2024 03:00Light Rain19°C11 mph, SE98%10000m1017hPa96%
16-Jun-2024 06:00Light Rain19°C11 mph, SE98%10000m1015hPa94%
16-Jun-2024 09:00Light Rain18°C9 mph, SE77%10000m1017hPa98%
16-Jun-2024 12:00Light Rain20°C11 mph, SE69%10000m1018hPa85%
16-Jun-2024 15:00Light Rain24°C13 mph, SE60%10000m1016hPa73%
16-Jun-2024 18:00Light Rain22°C13 mph, SE79%10000m1015hPa78%
16-Jun-2024 21:00Overcast Clouds18°C9 mph, SE91%10000m1016hPa94%
17-Jun-2024 00:00Broken Clouds17°C7 mph, SE80%10000m1017hPa97%
17-Jun-2024 03:00Scattered Clouds18°C7 mph, SE39%10000m1016hPa97%
17-Jun-2024 06:00Scattered Clouds17°C7 mph, SE38%10000m1015hPa99%
17-Jun-2024 09:00Scattered Clouds16°C4 mph, SE32%10000m1016hPa98%
17-Jun-2024 12:00Scattered Clouds22°C11 mph, SE46%10000m1016hPa78%
17-Jun-2024 15:00Light Rain25°C13 mph, SE62%10000m1015hPa60%
17-Jun-2024 18:00Broken Clouds24°C11 mph, SE57%10000m1013hPa60%
17-Jun-2024 21:00Light Rain19°C7 mph, SE29%10000m1015hPa98%
18-Jun-2024 00:00Scattered Clouds17°C4 mph, E40%10000m1017hPa99%